sensor_id;sensor_type;location;lat;lon;timestamp;P1;durP1;ratioP1;P2;durP2;ratioP2
59207;SDS011;44977;53.132;6.408;2022-08-01T00:03:10;12.02;;;9.00;;
59207;SDS011;44977;53.132;6.408;2022-08-01T00:08:11;12.55;;;7.70;;
59207;SDS011;44977;53.132;6.408;2022-08-01T00:13:12;11.23;;;8.57;;
59207;SDS011;44977;53.132;6.408;2022-08-01T00:18:13;12.00;;;7.50;;
59207;SDS011;44977;53.132;6.408;2022-08-01T00:23:13;10.75;;;7.28;;
59207;SDS011;44977;53.132;6.408;2022-08-01T00:28:14;8.82;;;5.90;;
59207;SDS011;44977;53.132;6.408;2022-08-01T00:33:16;7.90;;;4.70;;
59207;SDS011;44977;53.132;6.408;2022-08-01T00:38:16;7.50;;;4.57;;
59207;SDS011;44977;53.132;6.408;2022-08-01T00:43:17;8.90;;;4.03;;
59207;SDS011;44977;53.132;6.408;2022-08-01T00:48:18;7.07;;;3.60;;
59207;SDS011;44977;53.132;6.408;2022-08-01T00:53:18;7.55;;;4.03;;
59207;SDS011;44977;53.132;6.408;2022-08-01T00:58:19;5.90;;;3.13;;
59207;SDS011;44977;53.132;6.408;2022-08-01T01:03:21;5.97;;;3.53;;
59207;SDS011;44977;53.132;6.408;2022-08-01T01:08:24;6.95;;;3.25;;
59207;SDS011;44977;53.132;6.408;2022-08-01T01:13:37;7.72;;;3.95;;
59207;SDS011;44977;53.132;6.408;2022-08-01T01:18:45;7.15;;;3.78;;
59207;SDS011;44977;53.132;6.408;2022-08-01T01:34:32;7.55;;;3.35;;
59207;SDS011;44977;53.132;6.408;2022-08-01T01:39:36;5.95;;;2.75;;
59207;SDS011;44977;53.132;6.408;2022-08-01T01:44:38;9.07;;;3.25;;
59207;SDS011;44977;53.132;6.408;2022-08-01T01:49:40;6.22;;;2.67;;
59207;SDS011;44977;53.132;6.408;2022-08-01T01:54:47;6.15;;;2.28;;
59207;SDS011;44977;53.132;6.408;2022-08-01T01:59:49;7.68;;;2.78;;
59207;SDS011;44977;53.132;6.408;2022-08-01T02:04:52;9.75;;;2.65;;
59207;SDS011;44977;53.132;6.408;2022-08-01T02:09:53;9.48;;;2.72;;
59207;SDS011;44977;53.132;6.408;2022-08-01T02:14:55;7.28;;;2.38;;
59207;SDS011;44977;53.132;6.408;2022-08-01T02:19:56;7.40;;;2.38;;
59207;SDS011;44977;53.132;6.408;2022-08-01T02:25:11;8.68;;;2.30;;
59207;SDS011;44977;53.132;6.408;2022-08-01T02:30:14;8.60;;;2.80;;
59207;SDS011;44977;53.132;6.408;2022-08-01T02:35:28;10.32;;;3.00;;
59207;SDS011;44977;53.132;6.408;2022-08-01T02:40:32;11.15;;;3.20;;
59207;SDS011;44977;53.132;6.408;2022-08-01T02:45:37;11.00;;;3.30;;
59207;SDS011;44977;53.132;6.408;2022-08-01T02:50:42;8.98;;;2.90;;
59207;SDS011;44977;53.132;6.408;2022-08-01T02:55:47;10.82;;;3.35;;
59207;SDS011;44977;53.132;6.408;2022-08-01T03:00:49;10.40;;;3.20;;
59207;SDS011;44977;53.132;6.408;2022-08-01T03:05:51;12.63;;;3.83;;
59207;SDS011;44977;53.132;6.408;2022-08-01T03:10:52;11.57;;;3.83;;
59207;SDS011;44977;53.132;6.408;2022-08-01T03:15:55;11.45;;;3.72;;
59207;SDS011;44977;53.132;6.408;2022-08-01T03:20:57;10.35;;;3.50;;
59207;SDS011;44977;53.132;6.408;2022-08-01T03:25:59;11.05;;;3.55;;
59207;SDS011;44977;53.132;6.408;2022-08-01T03:31:01;13.77;;;4.15;;
59207;SDS011;44977;53.132;6.408;2022-08-01T03:36:02;9.82;;;3.58;;
59207;SDS011;44977;53.132;6.408;2022-08-01T03:41:16;12.70;;;3.88;;
59207;SDS011;44977;53.132;6.408;2022-08-01T03:46:24;12.13;;;4.07;;
59207;SDS011;44977;53.132;6.408;2022-08-01T03:51:39;13.52;;;3.75;;
59207;SDS011;44977;53.132;6.408;2022-08-01T03:56:40;14.02;;;3.88;;
59207;SDS011;44977;53.132;6.408;2022-08-01T04:01:43;10.57;;;3.83;;
59207;SDS011;44977;53.132;6.408;2022-08-01T04:06:45;12.63;;;3.85;;
59207;SDS011;44977;53.132;6.408;2022-08-01T04:11:46;12.73;;;3.90;;
59207;SDS011;44977;53.132;6.408;2022-08-01T04:16:47;11.68;;;3.70;;
59207;SDS011;44977;53.132;6.408;2022-08-01T04:21:47;11.45;;;3.78;;
59207;SDS011;44977;53.132;6.408;2022-08-01T04:26:48;16.40;;;4.25;;
59207;SDS011;44977;53.132;6.408;2022-08-01T04:31:51;13.73;;;4.20;;
59207;SDS011;44977;53.132;6.408;2022-08-01T04:36:54;13.93;;;4.15;;
59207;SDS011;44977;53.132;6.408;2022-08-01T04:41:56;14.90;;;3.83;;
59207;SDS011;44977;53.132;6.408;2022-08-01T04:47:00;15.43;;;3.85;;
59207;SDS011;44977;53.132;6.408;2022-08-01T04:52:03;17.75;;;4.28;;
59207;SDS011;44977;53.132;6.408;2022-08-01T04:57:06;14.40;;;3.85;;
59207;SDS011;44977;53.132;6.408;2022-08-01T05:02:07;14.00;;;3.88;;
59207;SDS011;44977;53.132;6.408;2022-08-01T05:07:12;14.32;;;4.18;;
59207;SDS011;44977;53.132;6.408;2022-08-01T05:12:13;15.90;;;4.40;;
59207;SDS011;44977;53.132;6.408;2022-08-01T05:17:14;15.93;;;4.10;;
59207;SDS011;44977;53.132;6.408;2022-08-01T05:22:14;18.08;;;4.00;;
59207;SDS011;44977;53.132;6.408;2022-08-01T05:27:15;16.15;;;4.00;;
59207;SDS011;44977;53.132;6.408;2022-08-01T05:32:16;17.50;;;4.65;;
59207;SDS011;44977;53.132;6.408;2022-08-01T05:37:17;13.85;;;3.28;;
59207;SDS011;44977;53.132;6.408;2022-08-01T05:42:17;13.57;;;3.55;;
59207;SDS011;44977;53.132;6.408;2022-08-01T05:47:18;15.52;;;3.85;;
59207;SDS011;44977;53.132;6.408;2022-08-01T05:52:19;16.80;;;3.83;;
59207;SDS011;44977;53.132;6.408;2022-08-01T05:57:19;18.05;;;4.18;;
59207;SDS011;44977;53.132;6.408;2022-08-01T06:02:20;14.13;;;3.38;;
59207;SDS011;44977;53.132;6.408;2022-08-01T06:07:21;15.25;;;3.85;;
59207;SDS011;44977;53.132;6.408;2022-08-01T06:12:22;17.75;;;4.35;;
59207;SDS011;44977;53.132;6.408;2022-08-01T06:17:22;13.75;;;3.50;;
59207;SDS011;44977;53.132;6.408;2022-08-01T06:22:23;14.32;;;3.95;;
59207;SDS011;44977;53.132;6.408;2022-08-01T06:27:24;15.77;;;4.32;;
59207;SDS011;44977;53.132;6.408;2022-08-01T06:32:27;14.50;;;4.25;;
59207;SDS011;44977;53.132;6.408;2022-08-01T06:37:30;13.57;;;4.10;;
59207;SDS011;44977;53.132;6.408;2022-08-01T06:42:31;14.55;;;4.00;;
59207;SDS011;44977;53.132;6.408;2022-08-01T06:47:35;16.40;;;4.10;;
59207;SDS011;44977;53.132;6.408;2022-08-01T06:52:37;16.52;;;4.85;;
59207;SDS011;44977;53.132;6.408;2022-08-01T06:57:44;13.68;;;3.90;;
59207;SDS011;44977;53.132;6.408;2022-08-01T07:02:46;18.52;;;4.18;;
59207;SDS011;44977;53.132;6.408;2022-08-01T07:07:47;16.48;;;3.67;;
59207;SDS011;44977;53.132;6.408;2022-08-01T07:12:48;12.20;;;3.28;;
59207;SDS011;44977;53.132;6.408;2022-08-01T07:17:49;15.60;;;3.53;;
59207;SDS011;44977;53.132;6.408;2022-08-01T07:22:49;11.65;;;3.20;;
59207;SDS011;44977;53.132;6.408;2022-08-01T07:27:50;10.85;;;2.97;;
59207;SDS011;44977;53.132;6.408;2022-08-01T07:32:51;11.02;;;2.78;;
59207;SDS011;44977;53.132;6.408;2022-08-01T07:37:51;11.57;;;2.60;;
59207;SDS011;44977;53.132;6.408;2022-08-01T07:42:53;12.98;;;3.38;;
59207;SDS011;44977;53.132;6.408;2022-08-01T07:47:53;11.75;;;3.33;;
59207;SDS011;44977;53.132;6.408;2022-08-01T07:52:54;15.05;;;3.35;;
59207;SDS011;44977;53.132;6.408;2022-08-01T07:57:55;10.65;;;2.50;;
59207;SDS011;44977;53.132;6.408;2022-08-01T08:02:55;12.10;;;2.40;;
59207;SDS011;44977;53.132;6.408;2022-08-01T08:07:58;12.20;;;2.72;;
59207;SDS011;44977;53.132;6.408;2022-08-01T08:12:59;12.93;;;2.88;;
59207;SDS011;44977;53.132;6.408;2022-08-01T08:18:02;9.77;;;2.22;;
59207;SDS011;44977;53.132;6.408;2022-08-01T08:23:03;8.68;;;2.17;;
59207;SDS011;44977;53.132;6.408;2022-08-01T08:28:24;9.93;;;2.35;;
59207;SDS011;44977;53.132;6.408;2022-08-01T08:33:24;10.18;;;2.42;;
59207;SDS011;44977;53.132;6.408;2022-08-01T08:38:25;10.30;;;2.58;;
59207;SDS011;44977;53.132;6.408;2022-08-01T08:43:27;9.60;;;2.42;;
59207;SDS011;44977;53.132;6.408;2022-08-01T08:48:28;11.90;;;2.38;;
59207;SDS011;44977;53.132;6.408;2022-08-01T08:53:30;11.13;;;2.35;;
59207;SDS011;44977;53.132;6.408;2022-08-01T08:58:33;9.70;;;2.35;;
59207;SDS011;44977;53.132;6.408;2022-08-01T09:03:37;9.43;;;2.10;;
59207;SDS011;44977;53.132;6.408;2022-08-01T09:08:39;10.70;;;1.92;;
59207;SDS011;44977;53.132;6.408;2022-08-01T09:13:40;8.32;;;2.00;;
59207;SDS011;44977;53.132;6.408;2022-08-01T09:18:41;10.30;;;2.17;;
59207;SDS011;44977;53.132;6.408;2022-08-01T09:23:45;8.43;;;1.90;;
59207;SDS011;44977;53.132;6.408;2022-08-01T09:28:48;10.23;;;2.30;;
59207;SDS011;44977;53.132;6.408;2022-08-01T09:33:55;12.15;;;2.30;;
59207;SDS011;44977;53.132;6.408;2022-08-01T09:38:58;9.25;;;1.65;;
59207;SDS011;44977;53.132;6.408;2022-08-01T09:44:16;10.88;;;2.30;;
59207;SDS011;44977;53.132;6.408;2022-08-01T09:49:26;10.65;;;3.08;;
59207;SDS011;44977;53.132;6.408;2022-08-01T09:54:29;8.13;;;2.10;;
59207;SDS011;44977;53.132;6.408;2022-08-01T09:59:38;10.68;;;1.90;;
59207;SDS011;44977;53.132;6.408;2022-08-01T10:04:46;7.55;;;2.00;;
59207;SDS011;44977;53.132;6.408;2022-08-01T10:09:50;7.90;;;1.85;;
59207;SDS011;44977;53.132;6.408;2022-08-01T10:14:51;8.48;;;1.95;;
59207;SDS011;44977;53.132;6.408;2022-08-01T10:19:54;7.75;;;1.90;;
59207;SDS011;44977;53.132;6.408;2022-08-01T10:24:56;9.95;;;1.75;;
59207;SDS011;44977;53.132;6.408;2022-08-01T10:29:59;6.82;;;1.48;;
59207;SDS011;44977;53.132;6.408;2022-08-01T10:35:04;6.22;;;1.50;;
59207;SDS011;44977;53.132;6.408;2022-08-01T10:40:06;7.28;;;2.03;;
59207;SDS011;44977;53.132;6.408;2022-08-01T10:45:11;6.25;;;1.67;;
59207;SDS011;44977;53.132;6.408;2022-08-01T10:50:19;6.97;;;1.57;;
59207;SDS011;44977;53.132;6.408;2022-08-01T10:55:27;9.00;;;1.77;;
59207;SDS011;44977;53.132;6.408;2022-08-01T11:00:28;7.75;;;1.90;;
59207;SDS011;44977;53.132;6.408;2022-08-01T11:05:32;6.85;;;1.70;;
59207;SDS011;44977;53.132;6.408;2022-08-01T11:15:45;9.63;;;1.85;;
59207;SDS011;44977;53.132;6.408;2022-08-01T11:20:56;8.85;;;1.67;;
59207;SDS011;44977;53.132;6.408;2022-08-01T11:51:58;8.40;;;1.85;;
59207;SDS011;44977;53.132;6.408;2022-08-01T11:57:10;9.75;;;1.48;;
59207;SDS011;44977;53.132;6.408;2022-08-01T12:07:24;7.80;;;1.63;;
59207;SDS011;44977;53.132;6.408;2022-08-01T12:12:26;6.85;;;1.50;;
59207;SDS011;44977;53.132;6.408;2022-08-01T12:17:29;7.22;;;1.60;;
59207;SDS011;44977;53.132;6.408;2022-08-01T12:22:34;7.38;;;1.48;;
59207;SDS011;44977;53.132;6.408;2022-08-01T12:27:36;7.63;;;1.65;;
59207;SDS011;44977;53.132;6.408;2022-08-01T12:32:38;6.47;;;1.45;;
59207;SDS011;44977;53.132;6.408;2022-08-01T12:37:43;9.00;;;2.00;;
59207;SDS011;44977;53.132;6.408;2022-08-01T12:42:49;7.10;;;1.63;;
59207;SDS011;44977;53.132;6.408;2022-08-01T12:47:52;9.02;;;1.50;;
59207;SDS011;44977;53.132;6.408;2022-08-01T12:52:55;6.68;;;1.63;;
59207;SDS011;44977;53.132;6.408;2022-08-01T12:58:10;7.60;;;1.50;;
59207;SDS011;44977;53.132;6.408;2022-08-01T13:03:14;6.93;;;1.50;;
59207;SDS011;44977;53.132;6.408;2022-08-01T13:08:23;7.55;;;1.63;;
59207;SDS011;44977;53.132;6.408;2022-08-01T13:13:41;6.63;;;1.60;;
59207;SDS011;44977;53.132;6.408;2022-08-01T13:18:48;8.68;;;1.75;;
59207;SDS011;44977;53.132;6.408;2022-08-01T13:24:00;8.48;;;2.38;;
59207;SDS011;44977;53.132;6.408;2022-08-01T13:29:07;9.23;;;2.72;;
59207;SDS011;44977;53.132;6.408;2022-08-01T13:34:09;8.25;;;1.50;;
59207;SDS011;44977;53.132;6.408;2022-08-01T13:39:10;8.55;;;1.73;;
59207;SDS011;44977;53.132;6.408;2022-08-01T13:44:30;8.73;;;1.52;;
59207;SDS011;44977;53.132;6.408;2022-08-01T13:49:30;7.53;;;1.60;;
59207;SDS011;44977;53.132;6.408;2022-08-01T13:54:32;8.10;;;1.77;;
59207;SDS011;44977;53.132;6.408;2022-08-01T13:59:32;6.40;;;1.42;;
59207;SDS011;44977;53.132;6.408;2022-08-01T14:04:33;5.85;;;1.35;;
59207;SDS011;44977;53.132;6.408;2022-08-01T14:09:34;8.38;;;1.75;;
59207;SDS011;44977;53.132;6.408;2022-08-01T14:14:34;7.00;;;1.70;;
59207;SDS011;44977;53.132;6.408;2022-08-01T14:19:35;7.65;;;2.08;;
59207;SDS011;44977;53.132;6.408;2022-08-01T14:24:36;7.05;;;2.00;;
59207;SDS011;44977;53.132;6.408;2022-08-01T14:29:36;8.13;;;2.10;;
59207;SDS011;44977;53.132;6.408;2022-08-01T14:34:37;6.88;;;1.88;;
59207;SDS011;44977;53.132;6.408;2022-08-01T14:39:38;9.20;;;2.13;;
59207;SDS011;44977;53.132;6.408;2022-08-01T14:44:38;6.68;;;1.42;;
59207;SDS011;44977;53.132;6.408;2022-08-01T14:49:39;7.65;;;1.77;;
59207;SDS011;44977;53.132;6.408;2022-08-01T14:54:40;7.45;;;1.70;;
59207;SDS011;44977;53.132;6.408;2022-08-01T14:59:40;6.72;;;1.77;;
59207;SDS011;44977;53.132;6.408;2022-08-01T15:04:41;6.00;;;1.60;;
59207;SDS011;44977;53.132;6.408;2022-08-01T15:09:42;6.20;;;1.50;;
59207;SDS011;44977;53.132;6.408;2022-08-01T15:14:43;6.78;;;1.70;;
59207;SDS011;44977;53.132;6.408;2022-08-01T15:19:51;7.53;;;1.60;;
59207;SDS011;44977;53.132;6.408;2022-08-01T15:24:53;7.03;;;1.70;;
59207;SDS011;44977;53.132;6.408;2022-08-01T15:29:56;7.78;;;1.65;;
59207;SDS011;44977;53.132;6.408;2022-08-01T15:34:56;7.85;;;1.73;;
59207;SDS011;44977;53.132;6.408;2022-08-01T15:39:57;7.60;;;1.60;;
59207;SDS011;44977;53.132;6.408;2022-08-01T15:44:58;8.43;;;1.60;;
59207;SDS011;44977;53.132;6.408;2022-08-01T15:49:59;7.82;;;1.77;;
59207;SDS011;44977;53.132;6.408;2022-08-01T15:55:02;7.03;;;1.70;;
59207;SDS011;44977;53.132;6.408;2022-08-01T16:00:03;7.57;;;1.73;;
59207;SDS011;44977;53.132;6.408;2022-08-01T16:05:05;7.60;;;1.65;;
59207;SDS011;44977;53.132;6.408;2022-08-01T16:10:07;7.78;;;1.92;;
59207;SDS011;44977;53.132;6.408;2022-08-01T16:15:08;5.80;;;1.48;;
59207;SDS011;44977;53.132;6.408;2022-08-01T16:20:09;8.10;;;1.80;;
59207;SDS011;44977;53.132;6.408;2022-08-01T16:25:10;8.73;;;1.73;;
59207;SDS011;44977;53.132;6.408;2022-08-01T16:30:12;8.30;;;1.95;;
59207;SDS011;44977;53.132;6.408;2022-08-01T16:35:13;7.38;;;2.00;;
59207;SDS011;44977;53.132;6.408;2022-08-01T16:40:13;7.35;;;1.50;;
59207;SDS011;44977;53.132;6.408;2022-08-01T16:45:14;7.18;;;1.73;;
59207;SDS011;44977;53.132;6.408;2022-08-01T16:50:16;7.32;;;1.80;;
59207;SDS011;44977;53.132;6.408;2022-08-01T16:55:17;7.45;;;1.60;;
59207;SDS011;44977;53.132;6.408;2022-08-01T17:00:18;9.60;;;2.05;;
59207;SDS011;44977;53.132;6.408;2022-08-01T17:05:19;7.30;;;1.50;;
59207;SDS011;44977;53.132;6.408;2022-08-01T17:10:20;7.07;;;1.40;;
59207;SDS011;44977;53.132;6.408;2022-08-01T17:15:21;10.35;;;1.88;;
59207;SDS011;44977;53.132;6.408;2022-08-01T17:20:22;6.63;;;1.48;;
59207;SDS011;44977;53.132;6.408;2022-08-01T17:25:23;9.02;;;1.80;;
59207;SDS011;44977;53.132;6.408;2022-08-01T17:30:24;7.07;;;1.70;;
59207;SDS011;44977;53.132;6.408;2022-08-01T17:35:25;7.47;;;1.77;;
59207;SDS011;44977;53.132;6.408;2022-08-01T17:40:25;7.60;;;2.00;;
59207;SDS011;44977;53.132;6.408;2022-08-01T17:45:26;7.07;;;1.70;;
59207;SDS011;44977;53.132;6.408;2022-08-01T17:50:27;9.35;;;1.80;;
59207;SDS011;44977;53.132;6.408;2022-08-01T17:55:27;8.55;;;1.95;;
59207;SDS011;44977;53.132;6.408;2022-08-01T18:00:28;7.30;;;1.70;;
59207;SDS011;44977;53.132;6.408;2022-08-01T18:05:29;8.77;;;1.80;;
59207;SDS011;44977;53.132;6.408;2022-08-01T18:10:30;6.97;;;1.63;;
59207;SDS011;44977;53.132;6.408;2022-08-01T18:15:31;9.35;;;1.92;;
59207;SDS011;44977;53.132;6.408;2022-08-01T18:20:31;6.93;;;1.77;;
59207;SDS011;44977;53.132;6.408;2022-08-01T18:25:32;6.75;;;1.90;;
59207;SDS011;44977;53.132;6.408;2022-08-01T18:30:33;7.43;;;1.85;;
59207;SDS011;44977;53.132;6.408;2022-08-01T18:35:34;8.38;;;2.08;;
59207;SDS011;44977;53.132;6.408;2022-08-01T18:40:35;8.35;;;1.90;;
59207;SDS011;44977;53.132;6.408;2022-08-01T18:45:35;8.02;;;1.90;;
59207;SDS011;44977;53.132;6.408;2022-08-01T18:50:36;7.18;;;1.85;;
59207;SDS011;44977;53.132;6.408;2022-08-01T18:55:38;9.25;;;1.90;;
59207;SDS011;44977;53.132;6.408;2022-08-01T19:00:39;7.88;;;2.00;;
59207;SDS011;44977;53.132;6.408;2022-08-01T19:05:41;7.00;;;1.80;;
59207;SDS011;44977;53.132;6.408;2022-08-01T19:10:42;9.27;;;1.95;;
59207;SDS011;44977;53.132;6.408;2022-08-01T19:15:44;6.55;;;1.58;;
59207;SDS011;44977;53.132;6.408;2022-08-01T19:20:45;6.95;;;1.63;;
59207;SDS011;44977;53.132;6.408;2022-08-01T19:25:45;6.82;;;1.70;;
59207;SDS011;44977;53.132;6.408;2022-08-01T19:30:47;8.40;;;2.13;;
59207;SDS011;44977;53.132;6.408;2022-08-01T19:35:52;10.05;;;2.08;;
59207;SDS011;44977;53.132;6.408;2022-08-01T19:40:53;8.13;;;2.20;;
59207;SDS011;44977;53.132;6.408;2022-08-01T19:45:55;8.75;;;2.08;;
59207;SDS011;44977;53.132;6.408;2022-08-01T19:50:55;10.13;;;2.33;;
59207;SDS011;44977;53.132;6.408;2022-08-01T19:56:01;8.88;;;2.15;;
59207;SDS011;44977;53.132;6.408;2022-08-01T20:01:08;8.13;;;2.15;;
59207;SDS011;44977;53.132;6.408;2022-08-01T20:06:13;9.20;;;2.13;;
59207;SDS011;44977;53.132;6.408;2022-08-01T20:11:13;9.00;;;2.10;;
59207;SDS011;44977;53.132;6.408;2022-08-01T20:16:16;7.68;;;1.92;;
59207;SDS011;44977;53.132;6.408;2022-08-01T20:21:18;7.53;;;2.33;;
59207;SDS011;44977;53.132;6.408;2022-08-01T20:26:19;9.35;;;2.13;;
59207;SDS011;44977;53.132;6.408;2022-08-01T20:31:22;11.32;;;2.42;;
59207;SDS011;44977;53.132;6.408;2022-08-01T20:36:26;8.05;;;2.13;;
59207;SDS011;44977;53.132;6.408;2022-08-01T20:41:27;10.45;;;2.65;;
59207;SDS011;44977;53.132;6.408;2022-08-01T20:46:28;7.63;;;2.33;;
59207;SDS011;44977;53.132;6.408;2022-08-01T20:51:29;10.07;;;3.10;;
59207;SDS011;44977;53.132;6.408;2022-08-01T21:01:57;9.05;;;3.05;;
59207;SDS011;44977;53.132;6.408;2022-08-01T21:07:19;8.95;;;2.90;;
59207;SDS011;44977;53.132;6.408;2022-08-01T21:12:25;7.65;;;2.95;;
59207;SDS011;44977;53.132;6.408;2022-08-01T21:17:34;8.55;;;2.97;;
59207;SDS011;44977;53.132;6.408;2022-08-01T21:22:45;8.52;;;2.88;;
59207;SDS011;44977;53.132;6.408;2022-08-01T21:27:54;9.07;;;2.70;;
59207;SDS011;44977;53.132;6.408;2022-08-01T21:32:57;7.55;;;2.58;;
59207;SDS011;44977;53.132;6.408;2022-08-01T21:37:58;9.55;;;3.03;;
59207;SDS011;44977;53.132;6.408;2022-08-01T21:43:01;9.60;;;3.75;;
59207;SDS011;44977;53.132;6.408;2022-08-01T21:48:03;6.40;;;3.17;;
59207;SDS011;44977;53.132;6.408;2022-08-01T21:53:23;8.10;;;3.88;;
59207;SDS011;44977;53.132;6.408;2022-08-01T21:59:03;8.65;;;2.90;;
59207;SDS011;44977;53.132;6.408;2022-08-01T22:09:37;7.75;;;2.80;;
59207;SDS011;44977;53.132;6.408;2022-08-01T22:14:39;8.98;;;3.40;;
59207;SDS011;44977;53.132;6.408;2022-08-01T22:19:42;7.55;;;3.03;;
59207;SDS011;44977;53.132;6.408;2022-08-01T22:24:43;8.88;;;2.80;;
59207;SDS011;44977;53.132;6.408;2022-08-01T22:29:45;8.75;;;3.10;;
59207;SDS011;44977;53.132;6.408;2022-08-01T22:34:46;9.52;;;2.95;;
59207;SDS011;44977;53.132;6.408;2022-08-01T22:39:48;7.95;;;2.60;;
59207;SDS011;44977;53.132;6.408;2022-08-01T22:45:10;9.45;;;3.20;;
59207;SDS011;44977;53.132;6.408;2022-08-01T22:50:18;8.27;;;3.03;;
59207;SDS011;44977;53.132;6.408;2022-08-01T22:55:23;8.52;;;2.90;;
59207;SDS011;44977;53.132;6.408;2022-08-01T23:00:26;7.90;;;2.80;;
59207;SDS011;44977;53.132;6.408;2022-08-01T23:05:29;6.15;;;2.42;;
59207;SDS011;44977;53.132;6.408;2022-08-01T23:10:34;6.80;;;2.95;;
59207;SDS011;44977;53.132;6.408;2022-08-01T23:15:36;9.70;;;3.10;;
59207;SDS011;44977;53.132;6.408;2022-08-01T23:20:39;8.73;;;3.15;;
59207;SDS011;44977;53.132;6.408;2022-08-01T23:25:42;8.13;;;2.80;;
59207;SDS011;44977;53.132;6.408;2022-08-01T23:30:46;7.68;;;3.15;;
59207;SDS011;44977;53.132;6.408;2022-08-01T23:35:46;7.93;;;2.70;;
59207;SDS011;44977;53.132;6.408;2022-08-01T23:40:47;7.93;;;2.70;;
59207;SDS011;44977;53.132;6.408;2022-08-01T23:45:49;9.57;;;3.13;;
59207;SDS011;44977;53.132;6.408;2022-08-01T23:50:49;6.80;;;2.85;;
59207;SDS011;44977;53.132;6.408;2022-08-01T23:55:50;8.55;;;3.00;;
